Time;durP1;ratioP1;P1;durP2;ratioP2;P2;SDS_P1;SDS_P2;PMS_P1;PMS_P2;Temp;Humidity;BMP_temperature;BMP_pressure;BME280_temperature;BME280_humidity;BME280_pressure;Samples;Min_cycle;Max_cycle;Signal;HPM_P1;HPM_P2
2022/11/11 00:01:55;;;;;;;;;;;10.70;88.90;;;;;;5063403;28;19936;-78
2022/11/11 00:04:20;;;;;;;;;;;10.70;88.90;;;;;;5063287;28;19920;-78
2022/11/11 00:06:46;;;;;;;;;;;10.70;89.00;;;;;;5065376;28;20383;-79
2022/11/11 00:09:11;;;;;;;;;;;10.70;88.90;;;;;;5069264;28;19923;-79
2022/11/11 00:11:37;;;;;;;;;;;10.70;89.00;;;;;;5074288;28;19909;-78
2022/11/11 00:14:02;;;;;;;;;;;10.70;89.10;;;;;;5069644;28;20375;-80
2022/11/11 00:25:04;;;;;;;;;;;10.70;89.20;;;;;;5071298;28;19917;-78
2022/11/11 00:27:25;;;;;;;;;;;10.80;89.10;;;;;;5066683;28;19935;-78
2022/11/11 00:29:51;;;;;;;;;;;10.70;89.20;;;;;;5070140;28;19917;-78
2022/11/11 00:32:22;;;;;;;;;;;10.70;89.00;;;;;;5065852;28;19912;-78
2022/11/11 00:37:36;;;;;;;;;;;10.70;89.20;;;;;;5073207;28;19920;-78
2022/11/11 00:40:02;;;;;;;;;;;10.70;89.00;;;;;;5068141;28;20022;-79
2022/11/11 00:42:28;;;;;;;;;;;10.70;89.10;;;;;;5067214;28;20373;-78
2022/11/11 00:44:53;;;;;;;;;;;10.70;89.20;;;;;;5067997;28;20404;-78
2022/11/11 00:52:48;;;;;;;;;;;10.70;89.30;;;;;;5071270;28;19966;-78
2022/11/11 00:55:13;;;;;;;;;;;10.60;89.20;;;;;;5081590;28;19908;-78
2022/11/11 00:57:39;;;;;;;;;;;10.70;89.10;;;;;;5077799;28;19916;-78
2022/11/11 01:00:04;;;;;;;;;;;10.70;89.20;;;;;;5070860;28;20422;-81
2022/11/11 01:02:30;;;;;;;;;;;10.60;89.20;;;;;;5069368;28;19913;-78
2022/11/11 01:04:55;;;;;;;;;;;10.60;89.10;;;;;;5076045;28;19948;-78
2022/11/11 01:07:21;;;;;;;;;;;10.60;88.90;;;;;;5072257;28;20344;-78
2022/11/11 01:09:47;;;;;;;;;;;10.60;89.00;;;;;;5067151;28;19916;-81
2022/11/11 01:12:12;;;;;;;;;;;10.60;89.20;;;;;;5071597;28;20006;-78
2022/11/11 01:14:37;;;;;;;;;;;10.60;89.20;;;;;;5068865;28;19912;-78
2022/11/11 01:17:05;;;;;;;;;;;10.60;89.30;;;;;;5067865;28;20326;-78
2022/11/11 01:19:30;;;;;;;;;;;10.50;89.30;;;;;;5066435;28;19924;-78
2022/11/11 01:21:56;;;;;;;;;;;10.50;89.20;;;;;;5071911;28;20336;-78
2022/11/11 01:24:21;;;;;;;;;;;10.50;89.10;;;;;;5072969;28;19959;-77
2022/11/11 01:26:47;;;;;;;;;;;10.50;89.20;;;;;;5071331;28;19913;-77
2022/11/11 01:29:12;;;;;;;;;;;10.50;89.30;;;;;;5055375;28;20336;-76
2022/11/11 01:31:37;;;;;;;;;;;10.50;89.20;;;;;;5072867;28;20025;-77
2022/11/11 01:34:03;;;;;;;;;;;10.50;89.30;;;;;;5068134;28;19946;-75
2022/11/11 01:36:28;;;;;;;;;;;10.50;89.30;;;;;;5073192;28;19959;-76
2022/11/11 01:38:55;;;;;;;;;;;10.50;89.30;;;;;;5068899;28;20272;-75
2022/11/11 01:41:31;;;;;;;;;;;10.50;89.40;;;;;;5070438;28;19927;-78
2022/11/11 01:43:57;;;;;;;;;;;10.50;89.50;;;;;;5065109;28;19913;-80
2022/11/11 01:46:33;;;;;;;;;;;10.50;89.40;;;;;;5082501;28;19912;-80
2022/11/11 01:49:20;;;;;;;;;;;10.50;89.40;;;;;;5074625;28;19912;-79
2022/11/11 01:51:57;;;;;;;;;;;10.40;89.50;;;;;;5066477;28;19912;-78
2022/11/11 01:54:31;;;;;;;;;;;10.40;89.60;;;;;;5069687;28;19921;-78
2022/11/11 01:57:00;;;;;;;;;;;10.40;89.40;;;;;;5068897;28;19947;-78
2022/11/11 01:59:25;;;;;;;;;;;10.40;89.40;;;;;;5064656;28;19924;-78
2022/11/11 02:01:51;;;;;;;;;;;10.40;89.50;;;;;;5070123;28;20042;-78
2022/11/11 02:07:19;;;;;;;;;;;10.20;89.40;;;;;;5006441;28;20243;-78
2022/11/11 02:09:46;;;;;;;;;;;10.20;89.40;;;;;;5059169;28;19979;-79
2022/11/11 02:14:57;;;;;;;;;;;10.10;89.60;;;;;;5068914;28;20273;-78
2022/11/11 02:17:23;;;;;;;;;;;10.10;89.60;;;;;;5068105;28;19952;-78
2022/11/11 02:19:51;;;;;;;;;;;10.10;89.70;;;;;;5064084;28;19920;-78
2022/11/11 02:22:22;;;;;;;;;;;10.00;89.80;;;;;;5065785;28;19920;-79
2022/11/11 02:24:48;;;;;;;;;;;10.00;89.90;;;;;;5065295;28;19925;-78
2022/11/11 02:27:14;;;;;;;;;;;10.00;90.00;;;;;;5071428;28;19920;-78
2022/11/11 02:29:41;;;;;;;;;;;9.90;90.00;;;;;;5071613;28;19916;-77
2022/11/11 02:32:06;;;;;;;;;;;9.90;90.10;;;;;;5068002;28;20324;-79
2022/11/11 02:34:32;;;;;;;;;;;9.90;90.10;;;;;;5065510;28;19917;-78
2022/11/11 02:36:58;;;;;;;;;;;9.80;90.10;;;;;;5068174;28;19913;-77
2022/11/11 02:39:24;;;;;;;;;;;9.80;90.20;;;;;;5069669;28;19928;-78
2022/11/11 02:41:56;;;;;;;;;;;9.80;90.20;;;;;;5074906;28;20003;-79
2022/11/11 02:44:21;;;;;;;;;;;9.80;90.30;;;;;;5066555;28;20456;-78
2022/11/11 02:46:47;;;;;;;;;;;9.70;90.40;;;;;;5073284;28;20038;-79
2022/11/11 02:49:12;;;;;;;;;;;9.70;90.30;;;;;;5076278;28;19912;-78
2022/11/11 02:51:37;;;;;;;;;;;9.70;90.40;;;;;;5072086;28;19974;-78
2022/11/11 02:54:03;;;;;;;;;;;9.70;90.30;;;;;;5069022;28;19913;-78
2022/11/11 02:59:12;;;;;;;;;;;9.60;90.50;;;;;;5064269;28;19924;-78
2022/11/11 03:01:38;;;;;;;;;;;9.60;90.50;;;;;;5070192;28;20455;-78
2022/11/11 03:04:03;;;;;;;;;;;9.60;90.50;;;;;;5075126;28;19912;-78
2022/11/11 03:06:29;;;;;;;;;;;9.50;90.60;;;;;;5069805;28;19916;-76
2022/11/11 03:08:54;;;;;;;;;;;9.50;90.70;;;;;;5068977;28;19917;-75
2022/11/11 03:11:26;;;;;;;;;;;9.50;90.80;;;;;;5073777;28;20412;-78
2022/11/11 03:13:52;;;;;;;;;;;9.50;90.90;;;;;;5068556;28;19967;-79
2022/11/11 03:19:02;;;;;;;;;;;9.50;90.80;;;;;;5070561;28;20144;-78
2022/11/11 03:21:28;;;;;;;;;;;9.50;90.90;;;;;;5073256;28;19917;-78
2022/11/11 03:23:53;;;;;;;;;;;9.50;90.90;;;;;;5075072;28;19912;-79
2022/11/11 03:26:18;;;;;;;;;;;9.50;90.90;;;;;;5075999;28;19908;-78
2022/11/11 03:28:44;;;;;;;;;;;9.50;91.00;;;;;;5072536;28;19917;-78
2022/11/11 03:31:09;;;;;;;;;;;9.50;91.00;;;;;;5075537;28;19939;-79
2022/11/11 03:33:35;;;;;;;;;;;9.40;90.90;;;;;;5074475;28;20348;-78
2022/11/11 03:36:00;;;;;;;;;;;9.50;90.90;;;;;;5076138;28;20268;-78
2022/11/11 03:38:25;;;;;;;;;;;9.50;90.90;;;;;;5072509;28;19927;-78
2022/11/11 03:40:52;;;;;;;;;;;9.50;91.00;;;;;;5074221;28;20097;-78
2022/11/11 03:43:18;;;;;;;;;;;9.40;91.00;;;;;;5074855;28;19915;-79
2022/11/11 03:45:44;;;;;;;;;;;9.50;90.90;;;;;;5075571;28;19912;-77
2022/11/11 03:48:09;;;;;;;;;;;9.40;91.00;;;;;;5074493;28;19915;-79
2022/11/11 03:50:35;;;;;;;;;;;9.40;91.10;;;;;;5073233;28;19919;-78
2022/11/11 03:53:00;;;;;;;;;;;9.40;91.00;;;;;;5076006;28;19966;-77
2022/11/11 03:55:26;;;;;;;;;;;9.50;91.10;;;;;;5067467;28;20327;-78
2022/11/11 03:57:51;;;;;;;;;;;9.40;91.00;;;;;;5068940;28;19996;-78
2022/11/11 04:00:19;;;;;;;;;;;9.40;91.10;;;;;;5074567;28;19917;-78
2022/11/11 04:10:59;;;;;;;;;;;9.40;91.10;;;;;;5074879;28;19928;-78
2022/11/11 04:16:09;;;;;;;;;;;9.40;91.10;;;;;;5081832;28;19916;-78
2022/11/11 04:25:47;;;;;;;;;;;9.40;91.10;;;;;;5072522;28;20009;-78
2022/11/11 04:26:49;;;;;;;;;;;9.40;91.20;;;;;;5072280;28;20003;-79
2022/11/11 04:29:30;;;;;;;;;;;9.40;91.20;;;;;;5081314;28;20350;-77
2022/11/11 04:34:44;;;;;;;;;;;9.40;91.30;;;;;;5074223;28;19919;-78
2022/11/11 04:37:10;;;;;;;;;;;9.40;91.30;;;;;;5086252;28;20276;-78
2022/11/11 04:42:20;;;;;;;;;;;9.30;91.20;;;;;;5080521;28;19923;-78
2022/11/11 04:47:30;;;;;;;;;;;9.40;91.30;;;;;;5074102;28;19970;-78
2022/11/11 04:49:55;;;;;;;;;;;9.30;91.20;;;;;;5081771;28;19992;-78
2022/11/11 04:52:30;;;;;;;;;;;9.30;91.30;;;;;;5072600;28;20439;-78
2022/11/11 04:57:41;;;;;;;;;;;9.30;91.30;;;;;;5074161;28;19920;-78
2022/11/11 05:00:11;;;;;;;;;;;9.40;91.20;;;;;;5067339;28;19921;-78
2022/11/11 05:05:22;;;;;;;;;;;9.40;91.30;;;;;;5068930;28;19958;-78
2022/11/11 05:10:31;;;;;;;;;;;9.40;91.30;;;;;;5061208;28;20018;-78
2022/11/11 05:21:19;;;;;;;;;;;9.50;91.20;;;;;;5068696;28;19916;-78
2022/11/11 05:21:21;;;;;;;;;;;9.40;91.20;;;;;;5067255;28;20415;-78
2022/11/11 05:26:34;;;;;;;;;;;9.50;91.20;;;;;;5060417;28;20334;-78
2022/11/11 05:29:00;;;;;;;;;;;9.50;91.10;;;;;;5064563;28;20006;-70
2022/11/11 05:31:25;;;;;;;;;;;9.50;91.20;;;;;;5069149;28;19912;-70
2022/11/11 05:33:51;;;;;;;;;;;9.50;91.20;;;;;;5070594;28;19960;-75
2022/11/11 05:36:16;;;;;;;;;;;9.50;91.20;;;;;;5061661;28;19947;-72
2022/11/11 05:38:42;;;;;;;;;;;9.50;91.20;;;;;;5070843;28;19932;-72
2022/11/11 05:41:08;;;;;;;;;;;9.50;91.20;;;;;;5069223;28;19924;-70
2022/11/11 05:43:34;;;;;;;;;;;9.50;91.20;;;;;;5062907;28;19939;-72
2022/11/11 05:46:00;;;;;;;;;;;9.50;91.10;;;;;;5068798;28;19966;-71
2022/11/11 05:48:26;;;;;;;;;;;9.50;91.10;;;;;;5063364;28;19920;-71
2022/11/11 05:50:51;;;;;;;;;;;9.50;91.20;;;;;;5068381;28;19920;-71
2022/11/11 05:53:22;;;;;;;;;;;9.50;91.20;;;;;;5063896;28;19919;-74
2022/11/11 05:55:52;;;;;;;;;;;9.50;91.20;;;;;;5059514;28;19939;-72
2022/11/11 05:58:18;;;;;;;;;;;9.50;91.30;;;;;;5047746;28;19920;-74
2022/11/11 06:00:44;;;;;;;;;;;9.50;91.30;;;;;;5056894;28;20434;-72
2022/11/11 06:03:10;;;;;;;;;;;9.50;91.20;;;;;;5056472;28;20006;-70
2022/11/11 06:05:36;;;;;;;;;;;9.50;91.30;;;;;;5066816;28;19909;-70
2022/11/11 06:08:01;;;;;;;;;;;9.50;91.20;;;;;;5065464;28;20597;-70
2022/11/11 06:10:29;;;;;;;;;;;9.60;91.30;;;;;;5071643;28;19923;-70
2022/11/11 06:13:01;;;;;;;;;;;9.50;91.40;;;;;;5072325;28;19913;-70
2022/11/11 06:15:27;;;;;;;;;;;9.60;91.40;;;;;;5070196;28;19916;-69
2022/11/11 06:17:52;;;;;;;;;;;9.50;91.50;;;;;;5070101;28;20003;-71
2022/11/11 06:20:18;;;;;;;;;;;9.60;91.50;;;;;;5079657;28;19917;-71
2022/11/11 06:22:55;;;;;;;;;;;9.50;91.60;;;;;;5075427;28;19909;-72
2022/11/11 06:28:05;;;;;;;;;;;9.60;91.70;;;;;;5070229;28;19981;-69
2022/11/11 06:30:30;;;;;;;;;;;9.60;91.70;;;;;;5070474;28;19913;-71
2022/11/11 06:32:56;;;;;;;;;;;9.60;91.90;;;;;;5073745;28;19958;-72
2022/11/11 06:35:21;;;;;;;;;;;9.60;92.00;;;;;;5067719;28;19921;-74
2022/11/11 06:37:47;;;;;;;;;;;9.60;92.20;;;;;;5071319;28;19966;-71
2022/11/11 06:40:12;;;;;;;;;;;9.60;92.40;;;;;;5073119;28;20288;-72
2022/11/11 06:42:38;;;;;;;;;;;9.60;92.50;;;;;;5070710;28;20640;-71
2022/11/11 06:45:03;;;;;;;;;;;9.60;92.60;;;;;;5070927;28;19913;-71
2022/11/11 06:47:30;;;;;;;;;;;9.60;92.60;;;;;;5074472;28;19919;-72
2022/11/11 06:49:58;;;;;;;;;;;9.60;92.70;;;;;;5070342;28;19909;-72
2022/11/11 06:52:24;;;;;;;;;;;9.60;92.80;;;;;;5071140;28;20431;-70
2022/11/11 06:54:49;;;;;;;;;;;9.60;92.80;;;;;;5069291;28;20011;-73
2022/11/11 06:57:15;;;;;;;;;;;9.60;92.90;;;;;;5071895;28;19916;-74
2022/11/11 06:59:40;;;;;;;;;;;9.60;93.00;;;;;;5071955;28;20015;-70
2022/11/11 07:02:07;;;;;;;;;;;9.60;93.00;;;;;;5066993;28;20121;-71
2022/11/11 07:04:32;;;;;;;;;;;9.60;93.00;;;;;;5071503;28;19954;-71
2022/11/11 07:06:58;;;;;;;;;;;9.60;93.10;;;;;;5077051;28;19912;-71
2022/11/11 07:09:25;;;;;;;;;;;9.70;93.10;;;;;;5070343;28;19916;-71
2022/11/11 07:11:50;;;;;;;;;;;9.70;93.10;;;;;;5076430;28;19909;-72
2022/11/11 07:14:15;;;;;;;;;;;9.70;93.10;;;;;;5081938;28;19916;-72
2022/11/11 07:16:41;;;;;;;;;;;9.70;93.20;;;;;;5088987;28;19927;-71
2022/11/11 07:19:06;;;;;;;;;;;9.70;93.20;;;;;;5074879;28;19931;-71
2022/11/11 07:21:32;;;;;;;;;;;9.70;93.10;;;;;;5073060;28;20406;-72
2022/11/11 07:23:57;;;;;;;;;;;9.70;93.00;;;;;;5073815;28;19916;-72
2022/11/11 07:26:22;;;;;;;;;;;9.80;93.00;;;;;;5084131;28;19919;-72
2022/11/11 07:28:50;;;;;;;;;;;9.70;93.00;;;;;;5073225;28;19912;-73
2022/11/11 07:31:15;;;;;;;;;;;9.80;93.00;;;;;;5074671;28;19920;-71
2022/11/11 07:33:41;;;;;;;;;;;9.70;93.10;;;;;;5077397;28;19990;-72
2022/11/11 07:36:06;;;;;;;;;;;9.70;93.00;;;;;;5072579;28;20488;-72
2022/11/11 07:38:31;;;;;;;;;;;9.70;93.00;;;;;;5067804;28;20288;-73
2022/11/11 07:40:57;;;;;;;;;;;9.70;93.00;;;;;;5079104;28;20037;-72
2022/11/11 07:43:24;;;;;;;;;;;9.80;92.80;;;;;;5068958;28;19912;-73
2022/11/11 07:45:49;;;;;;;;;;;9.80;92.90;;;;;;5074500;28;19908;-70
2022/11/11 07:48:15;;;;;;;;;;;9.80;92.90;;;;;;5069593;28;20253;-71
2022/11/11 07:50:40;;;;;;;;;;;9.80;92.90;;;;;;5083026;28;20322;-71
2022/11/11 07:53:06;;;;;;;;;;;9.80;92.90;;;;;;5084625;28;20368;-71
2022/11/11 07:55:31;;;;;;;;;;;9.80;92.90;;;;;;5078913;28;19928;-73
2022/11/11 07:57:57;;;;;;;;;;;9.80;92.80;;;;;;5082872;28;19952;-71
2022/11/11 08:00:22;;;;;;;;;;;9.80;92.70;;;;;;5083047;28;20384;-72
2022/11/11 08:02:48;;;;;;;;;;;9.80;92.60;;;;;;5069959;28;19912;-71
2022/11/11 08:05:14;;;;;;;;;;;9.80;92.70;;;;;;5073092;28;19912;-72
2022/11/11 08:07:41;;;;;;;;;;;9.80;92.70;;;;;;5076473;28;20007;-71
2022/11/11 08:10:07;;;;;;;;;;;9.80;92.70;;;;;;5074383;28;19912;-72
2022/11/11 08:15:17;;;;;;;;;;;9.80;92.70;;;;;;5073974;28;20287;-71
2022/11/11 08:17:42;;;;;;;;;;;9.90;92.70;;;;;;5073129;28;19908;-70
2022/11/11 08:20:08;;;;;;;;;;;9.80;92.70;;;;;;5073886;28;20273;-74
2022/11/11 08:22:35;;;;;;;;;;;9.90;92.70;;;;;;5073394;28;19909;-71
2022/11/11 08:25:01;;;;;;;;;;;9.80;92.60;;;;;;5073760;28;19916;-76
2022/11/11 08:27:26;;;;;;;;;;;9.80;92.70;;;;;;5070397;28;19920;-72
2022/11/11 08:29:52;;;;;;;;;;;9.90;92.60;;;;;;5066085;28;19920;-71
2022/11/11 08:32:17;;;;;;;;;;;9.90;92.90;;;;;;5072486;28;20360;-71
2022/11/11 08:34:42;;;;;;;;;;;10.00;92.70;;;;;;5073070;28;19919;-70
2022/11/11 08:37:08;;;;;;;;;;;9.90;92.50;;;;;;5069671;28;20382;-71
2022/11/11 08:39:33;;;;;;;;;;;9.80;92.80;;;;;;5072948;28;20454;-71
2022/11/11 08:41:59;;;;;;;;;;;9.80;92.70;;;;;;5072576;28;20413;-71
2022/11/11 08:44:24;;;;;;;;;;;9.90;93.00;;;;;;5066996;28;19912;-69
2022/11/11 08:46:50;;;;;;;;;;;9.60;93.10;;;;;;5074565;28;20284;-71
2022/11/11 08:49:15;;;;;;;;;;;9.60;93.30;;;;;;5072440;28;19913;-71
2022/11/11 08:51:40;;;;;;;;;;;9.60;93.60;;;;;;5090656;28;19908;-70
2022/11/11 08:54:06;;;;;;;;;;;9.60;93.70;;;;;;5072294;28;19921;-69
2022/11/11 08:56:31;;;;;;;;;;;9.50;93.80;;;;;;5067833;28;19972;-73
2022/11/11 08:58:57;;;;;;;;;;;9.50;93.80;;;;;;5065101;28;19920;-70
2022/11/11 09:01:22;;;;;;;;;;;9.50;93.90;;;;;;5058851;28;20399;-70
2022/11/11 09:03:47;;;;;;;;;;;9.50;93.90;;;;;;5065899;28;19916;-70
2022/11/11 09:06:13;;;;;;;;;;;9.50;93.90;;;;;;5090780;28;19912;-71
2022/11/11 09:08:40;;;;;;;;;;;9.50;93.90;;;;;;5067410;28;19912;-72
2022/11/11 09:11:06;;;;;;;;;;;9.40;93.80;;;;;;5072967;28;19916;-71
2022/11/11 09:13:31;;;;;;;;;;;9.40;94.00;;;;;;5067018;28;19922;-73
2022/11/11 09:15:58;;;;;;;;;;;9.50;93.90;;;;;;5069588;28;19978;-71
2022/11/11 09:18:24;;;;;;;;;;;9.50;94.00;;;;;;5069352;28;19988;-71
2022/11/11 09:20:49;;;;;;;;;;;9.50;93.90;;;;;;5085952;28;19960;-71
2022/11/11 09:23:15;;;;;;;;;;;9.50;93.80;;;;;;5069732;28;19913;-72
2022/11/11 09:25:40;;;;;;;;;;;9.50;93.80;;;;;;5075331;28;19959;-69
2022/11/11 09:28:06;;;;;;;;;;;9.60;93.80;;;;;;5057319;28;19958;-69
2022/11/11 09:30:32;;;;;;;;;;;9.60;93.70;;;;;;5065510;28;19920;-68
2022/11/11 09:33:04;;;;;;;;;;;9.60;93.60;;;;;;5076932;28;19915;-69
2022/11/11 09:35:30;;;;;;;;;;;9.60;93.40;;;;;;5068494;28;20466;-69
2022/11/11 09:37:56;;;;;;;;;;;9.60;93.40;;;;;;5067637;28;20473;-71
2022/11/11 09:40:23;;;;;;;;;;;9.60;93.50;;;;;;5063884;28;19967;-68
2022/11/11 09:43:09;;;;;;;;;;;9.60;93.60;;;;;;5069547;28;19927;-70
2022/11/11 09:45:44;;;;;;;;;;;9.60;93.50;;;;;;5067809;28;19982;-68
2022/11/11 09:48:24;;;;;;;;;;;9.60;93.50;;;;;;5075128;28;19915;-68
2022/11/11 09:50:53;;;;;;;;;;;9.60;93.50;;;;;;5073843;28;19908;-73
2022/11/11 09:53:28;;;;;;;;;;;9.60;93.60;;;;;;5070535;28;19982;-68
2022/11/11 09:56:19;;;;;;;;;;;9.60;93.50;;;;;;5069327;28;19958;-68
2022/11/11 09:58:50;;;;;;;;;;;9.60;93.50;;;;;;5061371;28;19923;-70
2022/11/11 10:01:17;;;;;;;;;;;9.60;93.60;;;;;;5064708;28;20433;-72
2022/11/11 10:03:50;;;;;;;;;;;9.60;93.70;;;;;;5069812;28;19999;-70
2022/11/11 10:06:21;;;;;;;;;;;9.60;93.70;;;;;;5063568;28;19912;-70
2022/11/11 10:09:05;;;;;;;;;;;9.60;93.60;;;;;;5068672;28;20459;-69
2022/11/11 10:11:49;;;;;;;;;;;9.70;93.70;;;;;;5069490;28;20388;-69
2022/11/11 10:14:15;;;;;;;;;;;9.70;93.60;;;;;;5069814;28;20014;-70
2022/11/11 10:16:51;;;;;;;;;;;9.80;93.60;;;;;;5071204;28;19955;-69
2022/11/11 10:19:27;;;;;;;;;;;9.80;93.50;;;;;;5065828;28;19919;-70
2022/11/11 10:21:57;;;;;;;;;;;9.90;93.70;;;;;;5073072;28;19912;-70
2022/11/11 10:24:29;;;;;;;;;;;9.90;93.50;;;;;;5075186;28;20430;-69
2022/11/11 10:26:54;;;;;;;;;;;9.90;93.20;;;;;;5066754;28;19914;-73
2022/11/11 10:29:21;;;;;;;;;;;9.80;93.30;;;;;;5068313;28;19934;-72
2022/11/11 10:31:52;;;;;;;;;;;9.90;93.40;;;;;;5068097;28;19921;-72
2022/11/11 10:34:18;;;;;;;;;;;9.90;93.30;;;;;;5071372;28;19959;-69
2022/11/11 10:36:47;;;;;;;;;;;9.90;93.20;;;;;;5071283;28;19923;-75
2022/11/11 10:39:15;;;;;;;;;;;10.00;93.30;;;;;;5070066;28;19970;-71
2022/11/11 10:41:46;;;;;;;;;;;10.00;93.00;;;;;;5069558;28;19925;-69
2022/11/11 10:44:19;;;;;;;;;;;10.10;93.10;;;;;;5064078;28;19921;-70
2022/11/11 10:46:51;;;;;;;;;;;10.00;92.80;;;;;;5068866;28;19965;-71
2022/11/11 10:49:19;;;;;;;;;;;10.00;92.90;;;;;;5071890;28;20269;-69
2022/11/11 10:51:48;;;;;;;;;;;10.10;92.80;;;;;;5066904;28;19913;-73
2022/11/11 10:54:20;;;;;;;;;;;10.10;92.70;;;;;;5066411;28;19978;-69
2022/11/11 10:56:52;;;;;;;;;;;10.10;92.40;;;;;;5064016;28;20007;-72
2022/11/11 10:59:21;;;;;;;;;;;10.30;92.10;;;;;;5066957;28;19954;-70
2022/11/11 11:01:51;;;;;;;;;;;10.30;91.70;;;;;;5069279;28;20019;-78
2022/11/11 11:04:25;;;;;;;;;;;10.30;91.30;;;;;;5070551;28;19917;-70
2022/11/11 11:06:51;;;;;;;;;;;10.40;91.20;;;;;;5072857;28;19967;-69
2022/11/11 11:09:22;;;;;;;;;;;10.50;91.20;;;;;;5070858;28;19956;-68
2022/11/11 11:12:06;;;;;;;;;;;10.50;91.20;;;;;;5074163;28;19915;-71
2022/11/11 11:14:33;;;;;;;;;;;10.50;91.10;;;;;;5072453;28;19921;-72
2022/11/11 11:17:04;;;;;;;;;;;10.40;91.10;;;;;;5071076;28;20276;-68
2022/11/11 11:19:30;;;;;;;;;;;10.40;91.50;;;;;;5074260;28;19920;-69
2022/11/11 11:22:00;;;;;;;;;;;10.40;91.20;;;;;;5071470;28;19946;-68
2022/11/11 11:24:30;;;;;;;;;;;10.40;91.30;;;;;;5070208;28;19908;-68
2022/11/11 11:27:00;;;;;;;;;;;10.50;91.40;;;;;;5059992;28;19994;-70
2022/11/11 11:29:25;;;;;;;;;;;10.50;91.40;;;;;;5068714;28;19916;-70
2022/11/11 11:31:51;;;;;;;;;;;10.50;91.20;;;;;;5065118;28;20015;-70
2022/11/11 11:34:17;;;;;;;;;;;10.50;91.20;;;;;;5072301;28;20406;-68
2022/11/11 11:36:42;;;;;;;;;;;10.60;91.30;;;;;;5065238;28;19919;-70
2022/11/11 11:39:07;;;;;;;;;;;10.70;91.10;;;;;;5067953;28;20319;-68
2022/11/11 11:41:37;;;;;;;;;;;10.60;91.20;;;;;;5065365;28;19928;-68
2022/11/11 11:44:03;;;;;;;;;;;10.70;91.00;;;;;;5066746;28;19958;-69
2022/11/11 11:46:36;;;;;;;;;;;10.70;91.10;;;;;;5067030;28;19920;-68
2022/11/11 11:49:19;;;;;;;;;;;10.70;91.20;;;;;;5066737;28;19923;-69
2022/11/11 11:51:55;;;;;;;;;;;10.70;91.00;;;;;;5064374;28;19996;-73
2022/11/11 11:54:29;;;;;;;;;;;10.80;90.90;;;;;;5069850;28;19919;-68
2022/11/11 11:56:57;;;;;;;;;;;10.80;90.90;;;;;;5070070;28;20271;-73
2022/11/11 11:59:41;;;;;;;;;;;10.80;90.80;;;;;;5066864;28;19928;-69
2022/11/11 12:02:15;;;;;;;;;;;10.90;90.70;;;;;;5068728;28;19920;-69
2022/11/11 12:05:00;;;;;;;;;;;10.80;90.50;;;;;;5066070;28;19920;-69
2022/11/11 12:07:44;;;;;;;;;;;10.80;90.50;;;;;;5060829;28;19920;-71
2022/11/11 12:10:09;;;;;;;;;;;11.00;90.40;;;;;;5068096;28;19916;-70
2022/11/11 12:12:34;;;;;;;;;;;11.00;90.20;;;;;;5070030;28;19919;-70
2022/11/11 12:15:00;;;;;;;;;;;11.10;90.30;;;;;;5069790;28;19947;-69
2022/11/11 12:17:29;;;;;;;;;;;11.10;90.10;;;;;;5072802;28;19908;-70
2022/11/11 12:20:11;;;;;;;;;;;11.10;89.70;;;;;;5069973;28;19920;-69
2022/11/11 12:22:46;;;;;;;;;;;11.20;89.70;;;;;;5062993;28;19917;-73
2022/11/11 12:25:17;;;;;;;;;;;11.20;89.20;;;;;;5067324;28;19920;-69
2022/11/11 12:28:06;;;;;;;;;;;11.30;89.00;;;;;;5073248;28;20014;-70
2022/11/11 12:30:32;;;;;;;;;;;11.40;88.80;;;;;;5065975;28;20643;-68
2022/11/11 12:33:16;;;;;;;;;;;11.50;88.50;;;;;;5069622;28;19978;-69
2022/11/11 12:35:48;;;;;;;;;;;11.50;88.50;;;;;;5072247;28;20023;-69
2022/11/11 12:38:30;;;;;;;;;;;11.60;88.30;;;;;;5061138;28;19920;-68
2022/11/11 12:40:58;;;;;;;;;;;11.60;88.30;;;;;;5072994;28;19920;-68
2022/11/11 12:43:31;;;;;;;;;;;11.70;87.60;;;;;;5066403;28;19916;-72
2022/11/11 12:45:59;;;;;;;;;;;11.80;88.00;;;;;;5069628;28;19920;-68
2022/11/11 12:48:28;;;;;;;;;;;11.90;87.70;;;;;;5071575;28;19940;-68
2022/11/11 12:51:12;;;;;;;;;;;12.00;87.20;;;;;;5077802;28;20360;-69
2022/11/11 12:54:03;;;;;;;;;;;12.10;86.50;;;;;;5070067;28;19912;-69
2022/11/11 12:56:41;;;;;;;;;;;12.50;86.60;;;;;;5075907;28;19915;-70
2022/11/11 12:59:16;;;;;;;;;;;12.70;85.00;;;;;;5064010;28;19913;-68
2022/11/11 13:01:50;;;;;;;;;;;12.90;84.60;;;;;;5069273;28;19924;-70
2022/11/11 13:04:34;;;;;;;;;;;13.10;84.10;;;;;;5071629;28;19915;-69
2022/11/11 13:07:11;;;;;;;;;;;13.00;83.40;;;;;;5072312;28;19921;-70
2022/11/11 13:10:03;;;;;;;;;;;13.00;83.70;;;;;;5069546;28;19913;-69
2022/11/11 13:12:28;;;;;;;;;;;13.00;83.70;;;;;;5052331;28;20280;-68
2022/11/11 13:15:01;;;;;;;;;;;12.80;83.80;;;;;;5071101;28;19920;-68
2022/11/11 13:17:26;;;;;;;;;;;12.80;84.50;;;;;;5071314;28;19908;-69
2022/11/11 13:19:54;;;;;;;;;;;12.80;84.30;;;;;;5073882;28;19925;-70
2022/11/11 13:22:22;;;;;;;;;;;12.80;84.80;;;;;;5071788;28;19912;-69
2022/11/11 13:24:51;;;;;;;;;;;12.70;84.40;;;;;;5071248;28;19919;-69
2022/11/11 13:27:35;;;;;;;;;;;12.80;84.60;;;;;;5069305;28;20089;-69
2022/11/11 13:30:13;;;;;;;;;;;12.90;84.70;;;;;;5071340;28;19912;-69
2022/11/11 13:32:47;;;;;;;;;;;13.00;84.10;;;;;;5070955;28;19908;-69
2022/11/11 13:35:24;;;;;;;;;;;13.10;83.80;;;;;;5072391;28;19913;-69
2022/11/11 13:37:50;;;;;;;;;;;13.50;83.60;;;;;;5078211;28;19920;-68
2022/11/11 13:40:33;;;;;;;;;;;13.50;82.90;;;;;;5070791;28;19921;-68
2022/11/11 13:43:00;;;;;;;;;;;13.70;82.40;;;;;;5070120;28;21759;-70
2022/11/11 13:45:36;;;;;;;;;;;14.00;81.90;;;;;;5067998;28;19913;-68
2022/11/11 13:48:03;;;;;;;;;;;14.00;81.60;;;;;;5069858;28;19975;-68
2022/11/11 13:50:30;;;;;;;;;;;14.00;82.10;;;;;;5069252;28;19917;-72
2022/11/11 13:52:58;;;;;;;;;;;14.10;81.00;;;;;;5073381;28;19916;-68
2022/11/11 13:55:38;;;;;;;;;;;14.00;81.30;;;;;;5070467;28;19909;-70
2022/11/11 13:58:04;;;;;;;;;;;14.00;81.30;;;;;;5061293;28;19920;-69
2022/11/11 14:00:33;;;;;;;;;;;14.00;81.20;;;;;;5069743;28;19916;-69
2022/11/11 14:03:17;;;;;;;;;;;14.00;81.20;;;;;;5069079;28;19969;-68
2022/11/11 14:05:43;;;;;;;;;;;13.90;81.70;;;;;;5066067;28;19913;-71
2022/11/11 14:08:09;;;;;;;;;;;14.00;81.50;;;;;;5068346;28;19970;-69
2022/11/11 14:10:34;;;;;;;;;;;13.90;81.30;;;;;;5071701;28;20351;-69
2022/11/11 14:13:18;;;;;;;;;;;13.80;82.00;;;;;;5069644;28;20245;-68
2022/11/11 14:15:44;;;;;;;;;;;13.80;82.00;;;;;;5069506;28;20356;-68
2022/11/11 14:18:30;;;;;;;;;;;13.60;82.40;;;;;;5067968;28;19912;-69
2022/11/11 14:20:55;;;;;;;;;;;13.50;82.80;;;;;;5067406;28;19966;-68
2022/11/11 14:23:31;;;;;;;;;;;13.50;83.00;;;;;;5070770;28;19924;-73
2022/11/11 14:26:05;;;;;;;;;;;13.30;83.30;;;;;;5080411;28;20015;-69
2022/11/11 14:28:36;;;;;;;;;;;13.10;84.20;;;;;;5073399;28;19916;-70
2022/11/11 14:31:10;;;;;;;;;;;13.00;84.40;;;;;;5071386;28;19924;-70
2022/11/11 14:33:36;;;;;;;;;;;13.00;84.70;;;;;;5071499;28;20419;-68
2022/11/11 14:36:13;;;;;;;;;;;12.90;85.00;;;;;;5074854;28;20016;-70
2022/11/11 14:39:11;;;;;;;;;;;12.80;85.30;;;;;;5071884;28;19921;-66
2022/11/11 14:41:37;;;;;;;;;;;12.70;85.70;;;;;;5045386;28;19932;-70
2022/11/11 14:44:21;;;;;;;;;;;12.60;86.20;;;;;;5062801;28;19927;-70
2022/11/11 14:47:07;;;;;;;;;;;12.50;86.60;;;;;;5066098;28;20023;-68
2022/11/11 14:49:50;;;;;;;;;;;12.40;86.80;;;;;;5065936;28;19908;-69
2022/11/11 14:52:36;;;;;;;;;;;12.30;87.20;;;;;;5064698;28;19964;-68
2022/11/11 14:55:01;;;;;;;;;;;12.30;87.30;;;;;;5053949;28;19973;-71
2022/11/11 14:57:30;;;;;;;;;;;12.20;87.50;;;;;;5066229;28;19912;-69
2022/11/11 14:59:56;;;;;;;;;;;12.10;88.00;;;;;;5067316;28;19916;-70
2022/11/11 15:02:23;;;;;;;;;;;12.00;88.00;;;;;;5066281;28;20122;-69
2022/11/11 15:04:49;;;;;;;;;;;11.90;88.20;;;;;;5067070;28;19912;-68
2022/11/11 15:07:21;;;;;;;;;;;11.70;88.30;;;;;;5063070;28;19916;-68
2022/11/11 15:09:46;;;;;;;;;;;11.70;89.00;;;;;;5065408;28;19920;-69
2022/11/11 15:12:17;;;;;;;;;;;11.60;89.10;;;;;;5066040;28;20340;-69
2022/11/11 15:14:42;;;;;;;;;;;11.50;89.60;;;;;;5067795;28;19920;-69
2022/11/11 15:17:27;;;;;;;;;;;11.50;89.70;;;;;;5065284;28;20282;-71
2022/11/11 15:19:57;;;;;;;;;;;11.30;90.00;;;;;;5068591;28;19916;-70
2022/11/11 15:22:32;;;;;;;;;;;11.10;90.30;;;;;;5065724;28;20574;-70
2022/11/11 15:25:10;;;;;;;;;;;11.10;90.60;;;;;;5071658;28;19979;-69
2022/11/11 15:27:40;;;;;;;;;;;11.00;91.10;;;;;;5073864;28;19908;-72
2022/11/11 15:30:05;;;;;;;;;;;10.80;91.30;;;;;;5069942;28;19919;-69
2022/11/11 15:32:54;;;;;;;;;;;10.60;91.40;;;;;;5071282;28;20260;-68
2022/11/11 15:35:35;;;;;;;;;;;10.50;92.00;;;;;;5062528;28;20003;-70
2022/11/11 15:38:03;;;;;;;;;;;10.40;92.30;;;;;;5067226;28;19924;-69
2022/11/11 15:40:41;;;;;;;;;;;10.40;92.90;;;;;;5072758;28;20147;-69
2022/11/11 15:43:10;;;;;;;;;;;10.40;93.00;;;;;;5072682;28;19924;-69
2022/11/11 15:45:36;;;;;;;;;;;10.20;93.10;;;;;;5069823;28;20050;-69
2022/11/11 15:48:02;;;;;;;;;;;10.30;93.30;;;;;;5071622;28;19934;-70
2022/11/11 15:50:29;;;;;;;;;;;10.20;93.10;;;;;;5076451;28;19956;-68